Terminal Aerodrome Forecast
Issued by NWS

Home | Current Version | Previous Version | Text Only | Print | Product List | Glossary On
Versions: 1 2 3 4 5 6 7 8 9 10 11 12 13 14 15 16 17 18 19 20 21 22 23 24 25 26 27 28 29 30 31 32 33 34 35 36 37 38 39 40 41 42
000
FTUS45 KSLC 232002 AAA
TAFOGD
TAF AMD
KOGD 232002Z 2320/2418 35007KT P6SM SCT040
      TEMPO 2320/2322 BKN040
     FM240000 VRB05KT P6SM SCT040 BKN080
     FM240800 17007KT 2SM -SN BR SCT009 BKN020=

USA.gov is the U.S. government's official web portal to all federal, state and local government web resources and services.